Time;durP1;ratioP1;P1;durP2;ratioP2;P2;SDS_P1;SDS_P2;PMS_P1;PMS_P2;Temp;Humidity;BMP_temperature;BMP_pressure;BME280_temperature;BME280_humidity;BME280_pressure;Samples;Min_cycle;Max_cycle;Signal;HPM_P1;HPM_P2
2021/04/19 00:01:04;;;;;;;23.15;17.67;;;;;;;7.54;73.97;100889.99;1780677;80;21440;-77
2021/04/19 00:03:33;;;;;;;24.20;17.48;;;;;;;7.53;73.73;100885.67;1780559;80;20967;-77
2021/04/19 00:06:01;;;;;;;27.62;19.23;;;;;;;7.48;73.25;100885.03;1780657;80;20995;-78
2021/04/19 00:08:29;;;;;;;22.98;18.07;;;;;;;7.39;73.11;100879.75;1780587;80;21002;-79
2021/04/19 00:10:59;;;;;;;27.45;18.40;;;;;;;7.35;73.22;100874.27;1780583;80;21595;-78
2021/04/19 00:13:29;;;;;;;26.93;17.37;;;;;;;7.31;73.42;100867.47;1780621;80;20954;-77
2021/04/19 00:15:57;;;;;;;26.45;17.17;;;;;;;7.26;73.67;100868.98;1780645;80;21483;-76
2021/04/19 00:18:25;;;;;;;21.93;16.48;;;;;;;7.23;74.09;100863.06;1780580;80;21469;-77
2021/04/19 00:20:53;;;;;;;25.08;17.15;;;;;;;7.23;74.33;100865.67;1780694;80;20911;-78
2021/04/19 00:23:22;;;;;;;25.52;17.62;;;;;;;7.23;74.32;100861.76;1780667;80;20928;-79
2021/04/19 00:25:52;;;;;;;22.87;17.37;;;;;;;7.23;74.34;100856.54;1780663;80;21463;-77
2021/04/19 00:28:22;;;;;;;28.70;20.55;;;;;;;7.22;74.37;100860.88;1780545;80;20983;-78
2021/04/19 00:30:50;;;;;;;25.15;16.97;;;;;;;7.22;74.38;100860.05;1780539;80;20989;-78
2021/04/19 00:33:18;;;;;;;26.77;17.48;;;;;;;7.20;74.14;100869.69;1780587;80;21023;-78
2021/04/19 00:35:47;;;;;;;29.87;18.00;;;;;;;7.12;74.08;100858.75;1780679;80;21022;-79
2021/04/19 00:38:15;;;;;;;25.57;17.62;;;;;;;7.10;74.23;100857.50;1780640;80;21347;-78
2021/04/19 00:40:43;;;;;;;21.57;17.15;;;;;;;7.09;74.33;100858.39;1780553;80;20947;-78
2021/04/19 00:43:12;;;;;;;26.68;17.77;;;;;;;7.09;74.36;100858.39;1752842;80;20966;-77
2021/04/19 00:45:41;;;;;;;24.10;18.70;;;;;;;7.08;74.27;100858.48;1780732;80;21397;-77
2021/04/19 00:48:10;;;;;;;20.97;16.32;;;;;;;7.02;74.43;100854.36;1780687;80;21439;-77
2021/04/19 00:50:39;;;;;;;23.77;17.05;;;;;;;7.01;74.43;100856.59;1780784;80;21375;-76
2021/04/19 00:53:07;;;;;;;23.25;16.75;;;;;;;6.97;74.49;100857.16;1780727;80;21031;-77
2021/04/19 00:55:37;;;;;;;20.12;15.95;;;;;;;6.95;74.69;100862.05;1780752;80;21046;-77
2021/04/19 00:58:05;;;;;;;23.85;16.62;;;;;;;6.94;74.83;100862.51;1780823;80;21373;-77
2021/04/19 01:00:34;;;;;;;20.57;16.30;;;;;;;6.93;75.03;100855.58;1752894;80;20936;-77
2021/04/19 01:03:03;;;;;;;21.80;16.07;;;;;;;6.96;74.90;100851.99;1780724;80;21369;-76
2021/04/19 01:05:38;;;;;;;20.12;14.93;;;;;;;6.95;74.89;100850.31;1780824;80;20959;-77
2021/04/19 01:08:07;;;;;;;16.90;14.40;;;;;;;6.94;74.92;100846.86;1780879;80;21030;-76
2021/04/19 01:10:36;;;;;;;17.48;15.43;;;;;;;6.94;74.84;100846.02;1780809;80;21496;-75
2021/04/19 01:13:05;;;;;;;17.73;14.90;;;;;;;6.90;74.92;100846.59;1780889;80;21342;-76
2021/04/19 01:15:33;;;;;;;19.17;13.70;;;;;;;6.88;74.98;100847.11;1780823;80;21647;-77
2021/04/19 01:18:04;;;;;;;17.10;14.30;;;;;;;6.88;75.05;100847.58;1780754;80;20934;-77
2021/04/19 01:20:46;;;;;;;17.10;13.88;;;;;;;6.88;75.13;100846.27;1780742;80;20904;-77
2021/04/19 01:23:15;;;;;;;15.45;13.40;;;;;;;6.89;75.25;100855.77;1780284;80;21010;-77
2021/04/19 01:25:44;;;;;;;18.20;14.55;;;;;;;6.88;75.29;100845.80;1780793;80;20923;-77
2021/04/19 01:28:12;;;;;;;15.50;13.85;;;;;;;6.87;75.36;100841.95;1780754;80;21177;-76
2021/04/19 01:30:44;;;;;;;15.20;12.58;;;;;;;6.85;75.40;100842.03;1780632;80;20966;-77
2021/04/19 01:33:12;;;;;;;19.27;14.53;;;;;;;6.83;75.44;100838.64;1780774;80;21329;-76
2021/04/19 01:35:41;;;;;;;17.10;13.18;;;;;;;6.79;75.49;100837.06;1780799;80;21424;-76
2021/04/19 01:38:11;;;;;;;17.70;13.05;;;;;;;6.78;75.44;100836.66;1780868;80;21484;-77
2021/04/19 01:40:39;;;;;;;18.67;13.70;;;;;;;6.75;75.43;100839.40;1780738;80;21362;-77
2021/04/19 01:43:07;;;;;;;17.73;13.78;;;;;;;6.76;75.42;100841.08;1780703;80;21408;-78
2021/04/19 01:45:47;;;;;;;18.82;15.13;;;;;;;6.76;75.32;100843.69;1779353;80;20951;-77
2021/04/19 01:48:15;;;;;;;18.95;16.05;;;;;;;6.75;75.34;100843.30;1780770;80;21460;-77
2021/04/19 01:50:44;;;;;;;18.82;13.85;;;;;;;6.73;75.39;100840.75;1752505;80;21188;-76
2021/04/19 01:53:13;;;;;;;16.27;13.88;;;;;;;6.72;75.44;100840.84;1780710;80;21378;-77
2021/04/19 01:55:43;;;;;;;18.82;14.30;;;;;;;6.69;75.53;100837.03;1780634;80;20911;-76
2021/04/19 01:58:17;;;;;;;18.67;13.93;;;;;;;6.67;75.75;100841.02;1780781;80;20950;-76
2021/04/19 02:00:58;;;;;;;17.40;14.40;;;;;;;6.66;75.99;100838.47;1780710;80;20927;-75
2021/04/19 02:03:56;;;;;;;15.95;14.23;;;;;;;6.66;76.00;100842.38;1780525;80;20963;-79
2021/04/19 02:06:47;;;;;;;20.65;14.35;;;;;;;6.66;75.86;100838.47;1780548;80;21380;-77
2021/04/19 02:09:28;;;;;;;18.35;14.70;;;;;;;6.63;75.73;100843.35;1780600;80;21007;-78
2021/04/19 02:12:12;;;;;;;17.55;14.25;;;;;;;6.60;75.76;100840.42;1780504;80;21081;-77
2021/04/19 02:14:55;;;;;;;17.20;13.18;;;;;;;6.56;75.83;100840.14;1780694;80;20944;-78
2021/04/19 02:17:50;;;;;;;14.73;12.68;;;;;;;6.52;76.05;100836.42;1752644;80;20935;-77
2021/04/19 02:20:30;;;;;;;15.55;13.40;;;;;;;6.51;76.11;100845.97;1780721;80;21884;-77
2021/04/19 02:23:01;;;;;;;17.60;14.98;;;;;;;6.49;76.08;100847.81;1780653;80;21361;-78
2021/04/19 02:25:40;;;;;;;19.35;16.45;;;;;;;6.49;76.00;100837.39;1780622;80;20954;-77
2021/04/19 02:28:12;;;;;;;20.88;15.98;;;;;;;6.48;75.91;100844.80;1780661;80;20975;-78
2021/04/19 02:30:45;;;;;;;18.75;14.43;;;;;;;6.47;75.82;100842.25;1778545;80;20911;-79
2021/04/19 02:33:16;;;;;;;19.52;14.43;;;;;;;6.44;75.74;100844.52;1774930;80;21401;-77
2021/04/19 02:35:46;;;;;;;15.93;14.13;;;;;;;6.40;75.72;100842.94;1774842;80;20971;-78
2021/04/19 02:38:23;;;;;;;18.07;13.40;;;;;;;6.35;75.95;100844.89;1774955;80;20902;-77
2021/04/19 02:40:53;;;;;;;16.42;12.53;;;;;;;6.30;76.13;100846.83;1774895;80;20927;-76
2021/04/19 02:43:22;;;;;;;16.50;12.95;;;;;;;6.26;76.32;100849.15;1774980;80;20926;-76
2021/04/19 02:45:51;;;;;;;16.37;13.83;;;;;;;6.21;76.45;100845.42;1774952;80;21393;-77
2021/04/19 02:48:23;;;;;;;18.67;14.07;;;;;;;6.20;76.56;100851.09;1774857;80;20948;-77
2021/04/19 02:50:54;;;;;;;18.37;14.10;;;;;;;6.17;76.58;100851.65;1757764;80;20923;-78
2021/04/19 02:53:22;;;;;;;19.00;13.35;;;;;;;6.14;76.70;100855.22;1774873;80;20959;-80
2021/04/19 02:55:50;;;;;;;16.93;13.38;;;;;;;6.12;76.84;100850.98;1775033;80;20972;-78
2021/04/19 02:58:40;;;;;;;15.58;13.43;;;;;;;6.11;77.06;100854.48;1774925;80;21817;-78
2021/04/19 03:01:11;;;;;;;13.43;12.03;;;;;;;6.12;77.16;100855.73;1774838;80;21512;-77
2021/04/19 03:03:42;;;;;;;13.48;12.03;;;;;;;6.13;77.27;100854.81;1753377;80;21973;-77
2021/04/19 03:06:10;;;;;;;16.95;12.82;;;;;;;6.15;77.41;100858.20;1774860;80;21082;-77
2021/04/19 03:08:45;;;;;;;14.85;11.90;;;;;;;6.20;77.44;100861.94;1774844;80;21007;-78
2021/04/19 03:11:41;;;;;;;16.77;13.32;;;;;;;6.24;77.40;100864.83;1774879;80;21378;-77
2021/04/19 03:14:11;;;;;;;14.68;13.00;;;;;;;6.26;77.34;100861.71;1774824;80;21595;-77
2021/04/19 03:16:55;;;;;;;15.35;12.70;;;;;;;6.28;77.34;100859.90;1774309;80;20975;-77
2021/04/19 03:19:26;;;;;;;14.05;11.97;;;;;;;6.29;77.35;100862.92;1774808;80;21031;-78
2021/04/19 03:21:55;;;;;;;17.62;14.55;;;;;;;6.29;77.38;100864.65;1753431;80;20932;-78
2021/04/19 03:24:24;;;;;;;14.75;12.98;;;;;;;6.30;77.38;100866.36;1774881;80;21112;-77
2021/04/19 03:26:57;;;;;;;15.35;12.78;;;;;;;6.30;77.41;100867.66;1752557;80;21030;-77
2021/04/19 03:29:27;;;;;;;16.77;12.73;;;;;;;6.34;77.39;100864.04;1774990;80;20955;-78
2021/04/19 03:32:10;;;;;;;17.30;13.70;;;;;;;6.36;77.41;100867.44;1773157;80;21031;-77
2021/04/19 03:34:41;;;;;;;17.15;13.98;;;;;;;6.39;77.34;100867.30;1774872;80;21175;-77
2021/04/19 03:37:24;;;;;;;18.48;14.25;;;;;;;6.42;77.28;100868.05;1774997;80;22600;-77
2021/04/19 03:39:57;;;;;;;15.00;13.08;;;;;;;6.47;77.29;100865.69;1774817;80;20919;-79
2021/04/19 03:42:26;;;;;;;16.52;13.30;;;;;;;6.53;77.34;100864.16;1774520;80;20966;-78
2021/04/19 03:44:54;;;;;;;18.10;15.20;;;;;;;6.58;77.41;100866.98;1774851;80;21698;-78
2021/04/19 03:47:25;;;;;;;25.02;13.20;;;;;;;6.65;77.24;100858.48;1771049;80;20943;-77
2021/04/19 03:50:07;;;;;;;21.57;17.15;;;;;;;6.73;77.11;100862.91;1754771;80;21217;-78
2021/04/19 03:52:40;;;;;;;16.87;12.95;;;;;;;6.79;76.91;100861.83;1774821;80;21046;-77
2021/04/19 03:55:13;;;;;;;21.85;13.70;;;;;;;6.84;76.75;100854.20;1753339;80;20999;-78
2021/04/19 03:57:45;;;;;;;13.85;12.23;;;;;;;6.91;76.74;100857.86;1774880;80;21468;-79
2021/04/19 04:00:20;;;;;;;12.80;11.50;;;;;;;6.96;76.66;100856.78;1774813;80;20955;-79
2021/04/19 04:02:52;;;;;;;18.40;13.05;;;;;;;7.01;76.67;100855.28;1774821;80;21481;-79
2021/04/19 04:05:23;;;;;;;14.93;12.37;;;;;;;7.06;76.67;100858.07;1772619;80;21030;-78
2021/04/19 04:07:52;;;;;;;13.55;11.80;;;;;;;7.15;76.52;100863.37;1773018;80;21384;-78
2021/04/19 04:10:22;;;;;;;14.93;12.88;;;;;;;7.19;76.22;100861.48;1774779;80;21027;-78
2021/04/19 04:12:50;;;;;;;14.50;12.58;;;;;;;7.23;76.15;100856.08;1774890;80;21030;-78
2021/04/19 04:15:19;;;;;;;14.63;12.18;;;;;;;7.29;76.01;100864.55;1774847;80;21140;-80
2021/04/19 04:17:49;;;;;;;15.05;12.65;;;;;;;7.29;75.96;100866.69;1774374;80;20931;-78
2021/04/19 04:20:21;;;;;;;15.28;12.15;;;;;;;7.31;76.05;100868.78;1773857;80;20947;-79
2021/04/19 04:22:51;;;;;;;12.15;10.88;;;;;;;7.38;75.98;100874.59;1771462;80;20964;-78
2021/04/19 04:25:21;;;;;;;13.10;11.30;;;;;;;7.42;75.92;100867.02;1774856;80;21543;-79
2021/04/19 04:27:50;;;;;;;14.53;10.95;;;;;;;7.48;76.03;100871.52;1774853;80;21667;-81
2021/04/19 04:30:20;;;;;;;14.75;11.45;;;;;;;7.58;75.73;100872.42;1728708;80;21568;-81
2021/04/19 04:33:08;;;;;;;14.45;12.95;;;;;;;7.70;75.63;100871.06;1773975;80;21010;-70
2021/04/19 04:35:39;;;;;;;13.78;12.33;;;;;;;7.86;75.48;100874.21;1774667;80;20975;-73
2021/04/19 04:38:17;;;;;;;15.53;11.73;;;;;;;8.07;75.32;100875.02;1773660;80;20979;-72
2021/04/19 04:40:47;;;;;;;14.15;12.13;;;;;;;8.30;74.58;100866.12;1774494;80;21818;-73
2021/04/19 04:45:21;;;;;;;14.03;11.22;;;;;;;8.65;73.60;100864.11;1777162;79;23132;-73
2021/04/19 04:48:00;;;;;;;12.68;11.03;;;;;;;8.74;73.16;100863.66;1749619;82;20969;-73
2021/04/19 04:50:46;;;;;;;16.02;11.57;;;;;;;8.88;72.60;100862.52;1749710;81;21419;-73
2021/04/19 04:53:38;;;;;;;14.10;11.85;;;;;;;8.97;72.10;100857.77;1749705;82;20998;-72
2021/04/19 04:56:06;;;;;;;13.28;11.55;;;;;;;8.98;71.89;100862.93;1749594;82;21010;-74
2021/04/19 04:58:35;;;;;;;13.45;10.95;;;;;;;9.06;71.81;100859.92;1749597;82;20994;-73
2021/04/19 05:01:06;;;;;;;13.78;12.07;;;;;;;9.30;71.87;100862.61;1749744;82;21022;-71
2021/04/19 05:03:37;;;;;;;12.60;10.72;;;;;;;9.66;71.35;100865.56;1749610;82;21408;-73
2021/04/19 05:06:07;;;;;;;11.57;10.48;;;;;;;10.03;70.69;100862.78;1748925;82;21006;-71
2021/04/19 05:08:41;;;;;;;14.43;10.18;;;;;;;10.37;69.60;100860.03;1749684;80;20975;-72
2021/04/19 05:11:11;;;;;;;14.53;11.00;;;;;;;10.59;68.66;100861.47;1749933;82;20931;-76
2021/04/19 05:13:40;;;;;;;15.38;13.83;;;;;;;10.73;67.39;100864.61;1721033;82;20943;-75
2021/04/19 05:16:08;;;;;;;14.35;12.20;;;;;;;10.82;66.37;100860.63;1749735;82;22125;-74
2021/04/19 05:18:37;;;;;;;13.88;12.23;;;;;;;10.84;66.33;100867.94;1749650;81;21579;-77
2021/04/19 05:21:07;;;;;;;14.73;12.30;;;;;;;10.85;66.57;100871.80;1749674;82;21014;-76
2021/04/19 05:23:35;;;;;;;13.18;11.12;;;;;;;10.86;66.39;100865.61;1749541;80;21011;-76
2021/04/19 05:26:04;;;;;;;12.82;11.43;;;;;;;10.77;65.88;100856.95;1749738;82;21104;-75
2021/04/19 05:28:33;;;;;;;13.65;12.18;;;;;;;10.70;66.02;100855.14;1749590;82;21491;-73
2021/04/19 05:31:01;;;;;;;15.83;13.22;;;;;;;10.62;65.99;100851.27;1749573;82;20955;-75
2021/04/19 05:33:30;;;;;;;14.70;13.13;;;;;;;10.55;66.41;100850.77;1749561;82;20955;-74
2021/04/19 05:35:59;;;;;;;13.78;11.55;;;;;;;10.51;66.79;100857.11;1749569;80;21030;-79
2021/04/19 05:38:27;;;;;;;14.90;11.35;;;;;;;10.53;66.78;100857.39;1749647;81;20975;-77
2021/04/19 05:40:56;;;;;;;28.45;16.65;;;;;;;10.56;66.86;100853.75;1749575;80;21658;-77
2021/04/19 05:43:24;;;;;;;17.80;13.28;;;;;;;10.60;66.79;100850.03;1748984;81;21167;-78
2021/04/19 05:45:52;;;;;;;15.20;12.65;;;;;;;10.68;66.41;100848.30;1715960;82;20956;-78
2021/04/19 05:48:21;;;;;;;12.68;11.38;;;;;;;10.80;66.23;100851.52;1736394;82;21401;-77
2021/04/19 05:50:54;;;;;;;14.33;12.35;;;;;;;10.98;65.89;100844.36;1736428;81;21469;-77
2021/04/19 05:53:22;;;;;;;13.70;11.60;;;;;;;11.17;65.74;100839.73;1736550;82;22328;-78
2021/04/19 05:55:55;;;;;;;14.13;12.65;;;;;;;11.39;65.06;100840.63;1735957;81;20972;-80
2021/04/19 05:58:31;;;;;;;14.80;13.30;;;;;;;11.66;64.91;100840.37;1735977;81;21038;-79
2021/04/19 06:01:10;;;;;;;14.28;12.33;;;;;;;11.98;64.17;100847.59;1735799;82;21365;-78
2021/04/19 06:03:47;;;;;;;14.10;12.73;;;;;;;12.28;62.58;100840.05;1735871;82;20962;-79
2021/04/19 06:06:34;;;;;;;15.88;14.25;;;;;;;12.57;61.19;100832.44;1735953;81;22367;-80
2021/04/19 06:09:20;;;;;;;13.60;12.23;;;;;;;12.96;61.02;100828.14;1735800;82;21031;-76
2021/04/19 06:12:02;;;;;;;13.72;12.30;;;;;;;13.31;60.39;100831.52;1732700;82;20955;-77
2021/04/19 06:14:43;;;;;;;13.15;11.78;;;;;;;13.47;58.43;100837.89;1715927;82;21452;-77
2021/04/19 06:17:11;;;;;;;15.10;12.63;;;;;;;13.62;58.65;100834.20;1735945;82;20999;-77
2021/04/19 06:19:44;;;;;;;14.28;12.85;;;;;;;13.76;57.77;100838.54;1735890;82;21803;-77
2021/04/19 06:22:17;;;;;;;14.75;13.20;;;;;;;13.95;57.46;100845.15;1735734;82;20971;-77
2021/04/19 06:24:51;;;;;;;14.63;13.13;;;;;;;14.10;57.52;100849.34;1735795;82;20995;-77
2021/04/19 06:27:24;;;;;;;15.30;13.20;;;;;;;14.24;56.81;100841.27;1735733;81;20916;-74
2021/04/19 06:29:53;;;;;;;14.70;13.08;;;;;;;14.31;56.08;100850.91;1736033;81;21018;-77
2021/04/19 06:32:22;;;;;;;13.72;12.33;;;;;;;14.31;56.08;100850.91;1736404;82;21647;-76
2021/04/19 06:34:51;;;;;;;13.85;12.37;;;;;;;14.34;56.19;100849.83;1736668;82;20964;-77
2021/04/19 06:37:21;;;;;;;14.15;12.75;;;;;;;14.33;56.63;100852.95;1736594;82;20971;-77
2021/04/19 06:39:49;;;;;;;14.25;12.95;;;;;;;14.25;56.21;100849.56;1736580;82;21377;-76
2021/04/19 06:42:17;;;;;;;13.80;12.35;;;;;;;14.15;56.43;100856.44;1738752;82;20976;-77
2021/04/19 06:44:45;;;;;;;14.63;13.13;;;;;;;14.09;57.02;100848.50;1738494;81;21792;-74
2021/04/19 06:47:13;;;;;;;15.88;14.18;;;;;;;14.10;57.31;100854.13;1736511;81;20919;-76
2021/04/19 06:49:44;;;;;;;13.88;12.25;;;;;;;14.14;57.03;100856.53;1736492;81;20944;-77
2021/04/19 06:52:13;;;;;;;13.90;12.50;;;;;;;14.22;57.05;100853.72;1736133;81;20931;-78
2021/04/19 06:54:42;;;;;;;18.52;13.15;;;;;;;14.42;56.52;100856.25;1736145;81;20945;-76
2021/04/19 06:57:10;;;;;;;13.30;11.80;;;;;;;14.75;56.59;100846.85;1736869;81;21804;-79
2021/04/19 06:59:39;;;;;;;13.18;11.85;;;;;;;15.01;56.13;100847.56;1735996;82;20971;-77
2021/04/19 07:02:08;;;;;;;13.15;11.70;;;;;;;15.28;54.89;100845.95;1687915;82;21485;-78
2021/04/19 07:04:36;;;;;;;12.53;11.33;;;;;;;15.82;53.87;100847.59;1715113;82;21011;-76
2021/04/19 07:07:04;;;;;;;12.80;11.50;;;;;;;15.82;53.87;100847.59;1715265;82;21011;-77
2021/04/19 07:09:35;;;;;;;12.60;11.25;;;;;;;16.03;53.74;100845.05;1735910;82;21733;-77
2021/04/19 07:12:08;;;;;;;14.20;12.75;;;;;;;16.08;52.83;100845.55;1736098;82;21096;-78
2021/04/19 07:14:38;;;;;;;14.20;12.58;;;;;;;15.89;52.71;100845.66;1736457;82;21007;-78
2021/04/19 07:17:06;;;;;;;14.33;12.45;;;;;;;15.58;53.60;100848.98;1736636;81;21061;-78
2021/04/19 07:19:34;;;;;;;13.60;12.23;;;;;;;15.41;54.18;100849.82;1737465;81;20947;-77
2021/04/19 07:22:04;;;;;;;13.30;11.88;;;;;;;15.26;54.22;100849.19;1737447;82;21362;-77
2021/04/19 07:24:34;;;;;;;15.25;12.20;;;;;;;15.13;54.37;100845.30;1718383;82;20955;-77
2021/04/19 07:27:13;;;;;;;12.90;11.60;;;;;;;15.13;54.37;100845.30;1738792;82;20940;-77
2021/04/19 07:29:45;;;;;;;13.20;11.80;;;;;;;15.01;54.81;100846.73;1738789;82;20931;-78
2021/04/19 07:32:15;;;;;;;14.65;13.08;;;;;;;15.01;54.81;100846.73;1738488;82;20912;-78
2021/04/19 07:35:00;;;;;;;13.28;11.90;;;;;;;14.92;54.94;100851.73;1738070;81;21372;-79
2021/04/19 07:37:34;;;;;;;14.15;12.78;;;;;;;14.82;55.00;100853.84;1738002;82;20916;-78
2021/04/19 07:40:17;;;;;;;16.55;12.68;;;;;;;14.79;55.14;100857.55;1691192;82;20932;-78
2021/04/19 07:42:49;;;;;;;15.78;12.40;;;;;;;14.79;55.14;100857.55;1735906;82;21007;-79
2021/04/19 07:45:19;;;;;;;14.33;12.58;;;;;;;14.94;55.45;100850.30;1700687;81;21022;-79
2021/04/19 07:47:47;;;;;;;18.48;12.98;;;;;;;15.51;54.47;100859.20;1757734;80;21428;-79
2021/04/19 07:50:22;;;;;;;14.58;11.80;;;;;;;15.51;54.47;100859.20;1757714;81;20959;-80
2021/04/19 07:53:07;;;;;;;11.53;10.40;;;;;;;15.81;53.53;100855.16;1757749;80;20989;-79
2021/04/19 07:55:39;;;;;;;12.25;10.68;;;;;;;16.21;52.66;100852.00;1757569;81;20967;-75
2021/04/19 07:58:22;;;;;;;11.97;10.63;;;;;;;16.59;51.42;100846.27;1757604;80;21014;-73
2021/04/19 08:01:03;;;;;;;12.10;10.93;;;;;;;16.99;50.82;100851.79;1757506;81;21413;-75
2021/04/19 08:03:41;;;;;;;11.88;10.75;;;;;;;17.23;49.79;100845.41;1757309;80;21057;-74
2021/04/19 08:06:22;;;;;;;12.28;10.70;;;;;;;17.23;49.28;100841.90;1757485;80;20958;-73
2021/04/19 08:08:50;;;;;;;11.95;10.70;;;;;;;17.19;48.93;100839.52;1757451;80;20942;-73
2021/04/19 08:11:18;;;;;;;11.50;10.30;;;;;;;17.05;48.70;100834.55;1757826;80;21041;-73
2021/04/19 08:13:47;;;;;;;12.65;11.35;;;;;;;16.98;48.70;100838.66;1757531;81;22125;-73
2021/04/19 08:16:21;;;;;;;13.18;11.85;;;;;;;16.95;49.92;100837.61;1757463;81;21563;-73
2021/04/19 08:18:51;;;;;;;11.68;10.20;;;;;;;16.87;49.31;100838.72;1757369;81;20990;-75
2021/04/19 08:21:26;;;;;;;11.68;10.50;;;;;;;16.69;49.05;100832.61;1757483;81;20950;-72
2021/04/19 08:23:55;;;;;;;10.98;9.88;;;;;;;16.47;49.98;100833.53;1757472;81;21061;-74
2021/04/19 08:26:24;;;;;;;11.48;10.45;;;;;;;16.39;50.20;100828.53;1757456;81;21263;-72
2021/04/19 08:28:52;;;;;;;12.10;10.48;;;;;;;16.41;50.04;100831.41;1683335;81;20967;-73
2021/04/19 08:31:22;;;;;;;11.03;9.93;;;;;;;16.51;50.23;100834.13;1757413;81;20986;-73
2021/04/19 08:33:51;;;;;;;10.45;9.35;;;;;;;16.53;51.39;100825.59;1757442;80;21341;-74
2021/04/19 08:36:19;;;;;;;11.57;10.13;;;;;;;16.46;50.34;100826.57;1757506;81;21496;-74
2021/04/19 08:38:47;;;;;;;11.45;10.35;;;;;;;16.43;51.82;100834.77;1757413;81;21364;-72
2021/04/19 08:41:15;;;;;;;11.48;10.40;;;;;;;16.32;50.84;100822.41;1757364;81;21459;-72
2021/04/19 08:43:46;;;;;;;12.30;11.00;;;;;;;16.25;50.72;100827.84;1757375;81;21018;-72
2021/04/19 08:46:14;;;;;;;12.37;11.28;;;;;;;16.15;50.99;100828.21;1724632;82;20947;-72
2021/04/19 08:48:43;;;;;;;11.78;10.23;;;;;;;16.07;51.23;100832.77;1722536;82;20939;-73
2021/04/19 08:51:11;;;;;;;10.68;9.78;;;;;;;15.84;50.88;100831.13;1749788;82;22327;-72
2021/04/19 08:53:40;;;;;;;11.25;10.23;;;;;;;15.50;51.13;100830.61;1675911;82;21499;-71
2021/04/19 08:56:09;;;;;;;13.15;8.75;;;;;;;15.14;52.02;100832.95;1749670;82;21014;-74
2021/04/19 08:58:38;;;;;;;10.78;9.58;;;;;;;14.97;52.78;100834.22;1749563;82;20907;-73
2021/04/19 09:01:08;;;;;;;12.05;9.60;;;;;;;14.92;52.86;100828.45;1749649;82;20947;-73
2021/04/19 09:03:37;;;;;;;11.25;10.15;;;;;;;15.04;53.26;100822.71;1749638;82;21853;-74
2021/04/19 09:06:16;;;;;;;10.95;9.88;;;;;;;15.04;53.26;100822.71;1749639;82;21448;-74
2021/04/19 09:08:47;;;;;;;12.53;10.25;;;;;;;15.22;53.71;100824.44;1749669;82;20971;-77
2021/04/19 09:11:15;;;;;;;10.85;9.63;;;;;;;15.54;53.22;100816.20;1749678;80;21030;-78
2021/04/19 09:13:43;;;;;;;9.80;8.90;;;;;;;15.54;53.22;100816.20;1699136;82;21388;-78
2021/04/19 09:16:22;;;;;;;9.25;8.35;;;;;;;15.62;53.22;100819.55;1749806;82;21799;-76
2021/04/19 09:18:56;;;;;;;9.40;8.48;;;;;;;15.83;52.39;100822.36;1749858;82;21484;-77
2021/04/19 09:21:42;;;;;;;10.13;8.88;;;;;;;16.05;51.76;100814.89;1749650;82;20979;-75
2021/04/19 09:24:17;;;;;;;8.53;7.60;;;;;;;16.25;51.47;100816.39;1749626;82;21027;-75
2021/04/19 09:26:56;;;;;;;9.68;8.15;;;;;;;16.34;50.75;100816.96;1749749;82;21014;-76
2021/04/19 09:29:39;;;;;;;9.33;8.38;;;;;;;16.23;51.13;100823.16;1749539;82;22277;-75
2021/04/19 09:32:10;;;;;;;8.20;7.37;;;;;;;16.14;51.36;100820.77;1749766;81;21011;-75
2021/04/19 09:34:47;;;;;;;9.60;8.60;;;;;;;16.15;51.79;100823.75;1749724;80;20951;-76
2021/04/19 09:37:25;;;;;;;9.45;8.50;;;;;;;16.13;51.06;100813.77;1749841;82;21026;-77
2021/04/19 09:40:06;;;;;;;10.18;8.83;;;;;;;15.90;51.62;100821.40;1746164;82;20892;-76
2021/04/19 09:43:09;;;;;;;9.78;8.30;;;;;;;15.73;51.65;100824.87;1749849;82;21269;-75
2021/04/19 09:45:48;;;;;;;9.53;8.73;;;;;;;15.62;51.75;100834.09;1749941;82;20999;-75
2021/04/19 09:48:38;;;;;;;9.55;8.65;;;;;;;15.42;52.18;100832.16;1745823;80;21030;-77
2021/04/19 09:51:23;;;;;;;10.60;8.58;;;;;;;14.92;54.16;100827.96;1749741;82;21018;-77
2021/04/19 09:53:59;;;;;;;9.58;8.58;;;;;;;14.92;54.16;100827.96;1749793;80;20932;-74
2021/04/19 09:56:57;;;;;;;9.28;8.38;;;;;;;14.91;54.27;100831.55;1749835;82;21140;-75
2021/04/19 09:59:29;;;;;;;9.65;8.75;;;;;;;14.91;54.27;100831.55;1749757;82;21014;-75
2021/04/19 10:02:00;;;;;;;21.20;8.58;;;;;;;15.07;53.91;100825.11;1749831;82;21002;-74
2021/04/19 10:04:29;;;;;;;10.65;8.45;;;;;;;15.22;53.47;100829.72;1749714;82;20954;-75
2021/04/19 10:06:59;;;;;;;10.48;7.70;;;;;;;15.32;52.99;100832.87;1722908;82;21011;-73
2021/04/19 10:09:29;;;;;;;10.08;7.10;;;;;;;15.32;52.99;100832.87;1749769;80;21198;-74
2021/04/19 10:12:03;;;;;;;9.08;8.18;;;;;;;15.45;52.43;100830.59;1749785;82;21006;-73
2021/04/19 10:14:40;;;;;;;8.33;7.40;;;;;;;15.57;52.43;100828.81;1750066;82;20985;-73
2021/04/19 10:17:21;;;;;;;8.73;7.83;;;;;;;15.67;51.68;100825.34;1749858;82;21460;-76
2021/04/19 10:19:50;;;;;;;8.98;8.08;;;;;;;15.65;51.75;100835.65;1749868;82;21358;-74
2021/04/19 10:22:19;;;;;;;8.65;7.75;;;;;;;15.72;51.93;100833.78;1722884;82;21336;-71
2021/04/19 10:24:57;;;;;;;8.75;7.85;;;;;;;16.03;52.35;100833.14;1749727;82;21440;-73
2021/04/19 10:27:29;;;;;;;11.12;8.13;;;;;;;16.34;51.76;100832.84;1749717;82;20987;-74
2021/04/19 10:30:15;;;;;;;8.05;7.35;;;;;;;16.88;50.83;100841.25;1749716;80;21588;-73
2021/04/19 10:32:43;;;;;;;7.42;6.80;;;;;;;17.37;49.47;100839.77;1749783;82;21480;-77
2021/04/19 10:35:32;;;;;;;7.58;6.87;;;;;;;17.84;48.23;100843.30;1749849;80;22287;-78
2021/04/19 10:38:03;;;;;;;7.05;6.45;;;;;;;18.08;48.17;100836.34;1747535;82;20970;-79
2021/04/19 10:40:31;;;;;;;6.50;5.90;;;;;;;18.40;46.04;100840.09;1749786;82;20971;-75
2021/04/19 10:43:07;;;;;;;7.00;6.30;;;;;;;18.77;47.09;100837.28;1749788;82;21337;-76
2021/04/19 10:45:36;;;;;;;6.60;6.10;;;;;;;19.09;44.97;100838.32;1749712;81;20955;-77
2021/04/19 10:48:20;;;;;;;6.85;6.25;;;;;;;19.04;43.85;100840.08;1749763;82;21390;-77
2021/04/19 10:50:51;;;;;;;6.92;6.28;;;;;;;18.83;44.01;100838.92;1749952;81;21022;-78
2021/04/19 10:53:37;;;;;;;6.67;5.90;;;;;;;18.63;44.21;100846.48;1749817;80;21524;-79
2021/04/19 10:56:07;;;;;;;6.42;5.83;;;;;;;18.46;44.12;100842.70;1749705;80;21046;-76
2021/04/19 10:58:37;;;;;;;7.22;6.53;;;;;;;18.34;45.29;100843.79;1749752;82;20987;-76
2021/04/19 11:01:06;;;;;;;6.62;6.12;;;;;;;18.32;45.94;100837.77;1749738;82;21367;-76
2021/04/19 11:03:37;;;;;;;7.40;6.67;;;;;;;18.29;45.07;100840.71;1749723;82;20963;-76
2021/04/19 11:06:09;;;;;;;6.90;6.30;;;;;;;18.15;45.44;100845.93;1750069;82;21074;-80
2021/04/19 11:08:59;;;;;;;6.78;6.08;;;;;;;18.08;45.69;100842.97;1749609;80;20951;-73
2021/04/19 11:11:35;;;;;;;6.80;6.20;;;;;;;17.99;45.67;100845.11;1749816;82;21587;-75
2021/04/19 11:14:25;;;;;;;6.72;6.12;;;;;;;17.83;45.71;100843.43;1727144;82;22295;-75
2021/04/19 11:17:02;;;;;;;6.58;5.70;;;;;;;17.57;45.56;100835.41;1719807;82;20951;-75
2021/04/19 11:19:44;;;;;;;6.75;6.08;;;;;;;17.44;46.13;100836.11;1719976;83;20958;-77
2021/04/19 11:22:30;;;;;;;7.45;6.75;;;;;;;17.44;46.29;100831.30;1719843;82;20966;-78
2021/04/19 11:25:14;;;;;;;7.25;5.78;;;;;;;17.50;46.64;100830.28;1717006;82;20978;-79
2021/04/19 11:27:43;;;;;;;6.45;5.95;;;;;;;17.65;46.91;100827.27;1716997;83;21775;-77
2021/04/19 11:30:27;;;;;;;6.58;6.00;;;;;;;17.78;46.09;100819.43;1719966;83;21261;-77
2021/04/19 11:33:16;;;;;;;7.03;5.37;;;;;;;17.93;46.45;100823.09;1720572;82;21038;-81
2021/04/19 11:35:47;;;;;;;6.45;5.85;;;;;;;18.04;45.87;100821.66;1720089;83;21037;-82
2021/04/19 11:38:22;;;;;;;6.17;5.58;;;;;;;18.06;46.32;100813.56;1720494;82;21504;-80
2021/04/19 11:40:52;;;;;;;6.37;5.78;;;;;;;18.05;45.39;100818.02;1720589;83;21384;-81
2021/04/19 11:43:31;;;;;;;6.40;5.78;;;;;;;18.08;45.16;100819.09;1720356;83;21387;-79
2021/04/19 11:46:14;;;;;;;5.95;5.45;;;;;;;18.01;44.90;100810.83;1716778;83;21507;-80